createdAt,value
2019-03-25T00:00:21.933Z,1012.32
2019-03-25T00:01:21.930Z,1012.30
2019-03-25T00:02:21.914Z,1012.31
2019-03-25T00:03:21.905Z,1012.24
2019-03-25T00:04:21.890Z,1012.17
2019-03-25T00:05:21.864Z,1012.18
2019-03-25T00:06:21.878Z,1012.23
2019-03-25T00:07:21.853Z,1012.15
2019-03-25T00:08:21.844Z,1012.11
2019-03-25T00:09:21.810Z,1012.21
2019-03-25T00:10:21.809Z,1012.16
2019-03-25T00:11:21.838Z,1012.10
2019-03-25T00:12:21.803Z,1012.06
2019-03-25T00:13:21.788Z,1012.00
2019-03-25T00:14:21.780Z,1011.99
2019-03-25T00:15:21.768Z,1011.97
2019-03-25T00:16:21.750Z,1012.06
2019-03-25T00:17:21.753Z,1012.00
2019-03-25T00:18:21.734Z,1012.01
2019-03-25T00:19:21.718Z,1011.99
2019-03-25T00:20:21.711Z,1011.99
2019-03-25T00:21:21.698Z,1011.97
2019-03-25T00:22:21.696Z,1011.97
2019-03-25T00:23:21.674Z,1011.91
2019-03-25T00:24:21.667Z,1011.94
2019-03-25T00:25:21.656Z,1011.91
2019-03-25T00:26:21.638Z,1011.97
2019-03-25T00:27:21.639Z,1012.01
2019-03-25T00:28:21.610Z,1011.90
2019-03-25T00:29:21.615Z,1011.85
2019-03-25T00:30:21.599Z,1011.94
2019-03-25T00:31:21.580Z,1011.86
2019-03-25T00:32:21.611Z,1011.86
2019-03-25T00:33:21.568Z,1011.95
2019-03-25T00:34:21.555Z,1011.86
2019-03-25T00:35:21.544Z,1011.81
2019-03-25T00:36:21.532Z,1011.79
2019-03-25T00:37:21.542Z,1011.81
2019-03-25T00:38:21.501Z,1011.82
2019-03-25T00:39:21.496Z,1011.79
2019-03-25T00:40:21.492Z,1011.91
2019-03-25T00:41:21.471Z,1011.89
2019-03-25T00:42:21.472Z,1011.78
2019-03-25T00:43:21.446Z,1011.73
2019-03-25T00:44:21.435Z,1011.72
2019-03-25T00:45:21.429Z,1011.78
2019-03-25T00:46:21.425Z,1011.64
2019-03-25T00:47:21.407Z,1011.60
2019-03-25T00:48:21.411Z,1011.56
2019-03-25T00:49:21.388Z,1011.64
2019-03-25T00:50:21.363Z,1011.54
2019-03-25T00:51:21.360Z,1011.59
2019-03-25T00:52:21.373Z,1011.60
2019-03-25T00:53:21.342Z,1011.54
2019-03-25T00:54:21.335Z,1011.52
2019-03-25T00:55:21.323Z,1011.46
2019-03-25T00:56:21.304Z,1011.41
2019-03-25T00:57:21.313Z,1011.56
2019-03-25T00:58:21.296Z,1011.38
2019-03-25T00:59:21.298Z,1011.48
2019-03-25T01:00:21.268Z,1011.41
2019-03-25T01:01:21.248Z,1011.24
2019-03-25T01:02:21.302Z,1011.29
2019-03-25T01:03:21.233Z,1011.24
2019-03-25T01:04:21.230Z,1011.25
2019-03-25T01:05:21.196Z,1011.20
2019-03-25T01:06:21.218Z,1011.17
2019-03-25T01:07:21.180Z,1011.09
2019-03-25T01:08:21.187Z,1011.09
2019-03-25T01:09:21.181Z,1011.04
2019-03-25T01:10:21.173Z,1010.94
2019-03-25T01:11:21.140Z,1010.90
2019-03-25T01:12:21.140Z,1010.91
2019-03-25T01:13:21.132Z,1010.86
2019-03-25T01:14:21.122Z,1010.82
2019-03-25T01:15:21.096Z,1010.75
2019-03-25T01:16:21.102Z,1010.93
2019-03-25T01:17:21.066Z,1010.86
2019-03-25T01:18:21.092Z,1010.86
2019-03-25T01:19:21.048Z,1010.97
2019-03-25T01:20:21.091Z,1010.75
2019-03-25T01:21:21.031Z,1010.71
2019-03-25T01:22:21.022Z,1010.81
2019-03-25T01:23:21.018Z,1010.71
2019-03-25T01:24:21.011Z,1010.69
2019-03-25T01:25:20.999Z,1010.68
2019-03-25T01:26:20.982Z,1010.63
2019-03-25T01:27:20.977Z,1010.60
2019-03-25T01:28:20.977Z,1010.60
2019-03-25T01:29:20.928Z,1010.57
2019-03-25T01:30:20.927Z,1010.53
2019-03-25T01:31:20.935Z,1010.47
2019-03-25T01:32:20.907Z,1010.60
2019-03-25T01:33:20.909Z,1010.44
2019-03-25T01:34:20.896Z,1010.56
2019-03-25T01:35:20.879Z,1010.57
2019-03-25T01:36:20.870Z,1010.46
2019-03-25T01:37:20.865Z,1010.45
2019-03-25T01:38:20.877Z,1010.45
2019-03-25T01:39:20.841Z,1010.54
2019-03-25T01:40:20.815Z,1010.44
2019-03-25T01:41:20.797Z,1010.38
2019-03-25T01:42:20.794Z,1010.43
2019-03-25T01:43:20.782Z,1010.55
2019-03-25T01:44:20.788Z,1010.36
2019-03-25T01:45:20.763Z,1010.43
2019-03-25T01:46:20.743Z,1010.34
2019-03-25T01:47:20.739Z,1010.28
2019-03-25T01:48:20.742Z,1010.30
2019-03-25T01:49:20.747Z,1010.22
2019-03-25T01:50:20.711Z,1010.26
2019-03-25T01:51:20.697Z,1010.31
2019-03-25T01:52:20.683Z,1010.25
2019-03-25T01:53:20.673Z,1010.14
2019-03-25T01:54:20.673Z,1010.27
2019-03-25T01:55:20.664Z,1010.18
2019-03-25T01:56:20.704Z,1010.21
2019-03-25T01:57:20.626Z,1010.19
2019-03-25T01:58:20.627Z,1010.21
2019-03-25T01:59:20.636Z,1010.23
2019-03-25T02:00:20.602Z,1010.02
2019-03-25T02:01:20.603Z,1010.06
2019-03-25T02:02:20.581Z,1010.09
2019-03-25T02:03:20.554Z,1010.06
2019-03-25T02:04:20.575Z,1009.99
2019-03-25T02:05:20.531Z,1010.03
2019-03-25T02:06:20.546Z,1009.98
2019-03-25T02:07:20.525Z,1010.11
2019-03-25T02:08:20.499Z,1009.94
2019-03-25T02:09:20.506Z,1009.98
2019-03-25T02:10:20.489Z,1009.89
2019-03-25T02:11:22.337Z,1009.94
2019-03-25T02:12:20.453Z,1010.03
2019-03-25T02:13:20.443Z,1009.96
2019-03-25T02:14:20.455Z,1010.06
2019-03-25T02:15:20.430Z,1009.91
2019-03-25T02:16:20.412Z,1009.78
2019-03-25T02:17:20.417Z,1009.94
2019-03-25T02:18:20.394Z,1009.90
2019-03-25T02:19:20.425Z,1009.78
2019-03-25T02:20:26.301Z,1009.84
2019-03-25T02:21:21.372Z,1009.69
2019-03-25T02:22:20.351Z,1009.69
2019-03-25T02:23:20.369Z,1009.71
2019-03-25T02:24:20.352Z,1009.70
2019-03-25T02:25:25.277Z,1009.62
2019-03-25T02:26:21.331Z,1009.82
2019-03-25T02:27:20.304Z,1009.66
2019-03-25T02:28:20.285Z,1009.68
2019-03-25T02:29:20.301Z,1009.64
2019-03-25T02:30:20.270Z,1009.64
2019-03-25T02:31:20.259Z,1009.59
2019-03-25T02:32:20.244Z,1009.74
2019-03-25T02:33:20.223Z,1009.63
2019-03-25T02:34:20.242Z,1009.56
2019-03-25T02:35:20.209Z,1009.50
2019-03-25T02:36:20.210Z,1009.49
2019-03-25T02:37:20.193Z,1009.49
2019-03-25T02:38:20.181Z,1009.54
2019-03-25T02:39:20.195Z,1009.60
2019-03-25T02:40:20.148Z,1009.57
2019-03-25T02:41:20.142Z,1009.49
2019-03-25T02:42:20.159Z,1009.44
2019-03-25T02:43:20.122Z,1009.51
2019-03-25T02:44:20.126Z,1009.37
2019-03-25T02:45:20.115Z,1009.39
2019-03-25T02:46:20.092Z,1009.35
2019-03-25T02:47:20.079Z,1009.46
2019-03-25T02:48:20.068Z,1009.36
2019-03-25T02:49:20.086Z,1009.35
2019-03-25T02:50:20.047Z,1009.35
2019-03-25T02:51:20.044Z,1009.29
2019-03-25T02:52:20.022Z,1009.25
2019-03-25T02:53:20.026Z,1009.20
2019-03-25T02:54:20.038Z,1009.35
2019-03-25T02:55:19.980Z,1009.17
2019-03-25T02:56:19.974Z,1009.19
2019-03-25T02:57:19.961Z,1009.15
2019-03-25T02:58:19.967Z,1009.07
2019-03-25T02:59:19.983Z,1009.10
2019-03-25T03:00:19.936Z,1009.05
2019-03-25T03:01:19.950Z,1009.05
2019-03-25T03:02:19.959Z,1009.15
2019-03-25T03:03:19.916Z,1009.08
2019-03-25T03:04:19.908Z,1009.08
2019-03-25T03:05:19.879Z,1009.10
2019-03-25T03:06:19.882Z,1009.00
2019-03-25T03:07:19.858Z,1009.04
2019-03-25T03:08:19.854Z,1008.98
2019-03-25T03:09:19.857Z,1009.00
2019-03-25T03:10:19.824Z,1008.93
2019-03-25T03:11:19.806Z,1009.00
2019-03-25T03:12:19.796Z,1008.95
2019-03-25T03:13:19.816Z,1008.83
2019-03-25T03:14:19.783Z,1008.97
2019-03-25T03:15:19.788Z,1008.89
2019-03-25T03:16:19.756Z,1008.80
2019-03-25T03:17:19.740Z,1008.74
2019-03-25T03:18:19.735Z,1008.77
2019-03-25T03:19:19.728Z,1008.80
2019-03-25T03:20:19.733Z,1008.71
2019-03-25T03:21:19.698Z,1008.86
2019-03-25T03:22:19.691Z,1008.70
2019-03-25T03:23:19.679Z,1008.71
2019-03-25T03:24:19.779Z,1008.73
2019-03-25T03:25:19.669Z,1008.67
2019-03-25T03:26:19.633Z,1008.70
2019-03-25T03:27:19.653Z,1008.63
2019-03-25T03:28:19.632Z,1008.58
2019-03-25T03:29:19.608Z,1008.60
2019-03-25T03:30:19.625Z,1008.50
2019-03-25T03:31:19.607Z,1008.48
2019-03-25T03:32:19.735Z,1008.49
2019-03-25T03:33:19.592Z,1008.47
2019-03-25T03:34:19.624Z,1008.45
2019-03-25T03:35:19.588Z,1008.39
2019-03-25T03:36:19.568Z,1008.56
2019-03-25T03:37:19.545Z,1008.40
2019-03-25T03:38:19.598Z,1008.41
2019-03-25T03:39:19.574Z,1008.40
2019-03-25T03:40:19.548Z,1008.36
2019-03-25T03:41:19.510Z,1008.42
2019-03-25T03:42:19.623Z,1008.38
2019-03-25T03:43:19.454Z,1008.40
2019-03-25T03:44:19.444Z,1008.35
2019-03-25T03:45:19.514Z,1008.36
2019-03-25T03:46:19.427Z,1008.53
2019-03-25T03:47:19.423Z,1008.41
2019-03-25T03:48:19.396Z,1008.33
2019-03-25T03:49:19.397Z,1008.24
2019-03-25T03:50:19.396Z,1008.28
2019-03-25T03:51:19.366Z,1008.29
2019-03-25T03:52:19.361Z,1008.28
2019-03-25T03:53:19.333Z,1008.38
2019-03-25T03:54:19.331Z,1008.40
2019-03-25T03:55:19.393Z,1008.28
2019-03-25T03:56:19.314Z,1008.25
2019-03-25T03:57:19.303Z,1008.26
2019-03-25T03:58:19.308Z,1008.21
2019-03-25T03:59:19.270Z,1008.19
2019-03-25T04:00:19.292Z,1008.15
2019-03-25T04:01:19.253Z,1008.15
2019-03-25T04:02:19.244Z,1008.10
2019-03-25T04:03:19.233Z,1008.13
2019-03-25T04:04:19.250Z,1008.11
2019-03-25T04:05:19.224Z,1008.07
2019-03-25T04:06:19.224Z,1008.07
2019-03-25T04:07:19.187Z,1008.09
2019-03-25T04:08:19.185Z,1008.18
2019-03-25T04:09:19.165Z,1008.15
2019-03-25T04:10:19.182Z,1008.02
2019-03-25T04:11:19.134Z,1008.01
2019-03-25T04:12:19.144Z,1008.03
2019-03-25T04:13:19.121Z,1007.99
2019-03-25T04:14:19.118Z,1007.95
2019-03-25T04:15:19.113Z,1007.92
2019-03-25T04:16:19.100Z,1007.88
2019-03-25T04:17:19.077Z,1007.86
2019-03-25T04:18:19.071Z,1007.84
2019-03-25T04:19:19.050Z,1007.82
2019-03-25T04:20:19.044Z,1007.89
2019-03-25T04:21:19.050Z,1007.88
2019-03-25T04:22:19.044Z,1007.85
2019-03-25T04:23:19.011Z,1007.65
2019-03-25T04:24:18.996Z,1007.79
2019-03-25T04:25:18.978Z,1007.77
2019-03-25T04:26:28.540Z,1007.75
2019-03-25T04:27:19.961Z,1007.66
2019-03-25T04:28:18.948Z,1007.56
2019-03-25T04:29:18.958Z,1007.60
2019-03-25T04:30:18.931Z,1007.55
2019-03-25T04:31:18.940Z,1007.55
2019-03-25T04:32:18.901Z,1007.41
2019-03-25T04:33:18.897Z,1007.45
2019-03-25T04:34:18.879Z,1007.47
2019-03-25T04:35:18.879Z,1007.47
2019-03-25T04:36:18.886Z,1007.38
2019-03-25T04:37:18.857Z,1007.39
2019-03-25T04:38:18.848Z,1007.41
2019-03-25T04:39:18.824Z,1007.41
2019-03-25T04:40:18.819Z,1007.38
2019-03-25T04:41:18.830Z,1007.40
2019-03-25T04:42:18.817Z,1007.40
2019-03-25T04:43:18.798Z,1007.34
2019-03-25T04:44:18.808Z,1007.31
2019-03-25T04:45:18.759Z,1007.49
2019-03-25T04:46:18.775Z,1007.35
2019-03-25T04:47:18.754Z,1007.28
2019-03-25T04:48:18.743Z,1007.37
2019-03-25T04:49:18.748Z,1007.33
2019-03-25T04:50:18.715Z,1007.31
2019-03-25T04:51:18.720Z,1007.19
2019-03-25T04:52:18.700Z,1007.20
2019-03-25T04:53:18.675Z,1007.24
2019-03-25T04:54:18.675Z,1007.28
2019-03-25T04:55:18.667Z,1007.33
2019-03-25T04:56:18.652Z,1007.20
2019-03-25T04:57:18.657Z,1007.30
2019-03-25T04:58:18.618Z,1007.20
2019-03-25T04:59:18.605Z,1007.19
2019-03-25T05:00:18.597Z,1007.12
2019-03-25T05:01:18.592Z,1007.12
2019-03-25T05:02:18.611Z,1007.09
2019-03-25T05:03:18.578Z,1007.29
2019-03-25T05:04:18.570Z,1007.22
2019-03-25T05:05:18.549Z,1007.16
2019-03-25T05:06:18.543Z,1007.14
2019-03-25T05:07:18.540Z,1007.08
2019-03-25T05:08:18.514Z,1007.05
2019-03-25T05:09:18.494Z,1007.00
2019-03-25T05:10:18.482Z,1007.03
2019-03-25T05:11:30.073Z,1006.97
2019-03-25T05:12:19.485Z,1006.97
2019-03-25T05:13:18.466Z,1006.88
2019-03-25T05:14:18.458Z,1006.89
2019-03-25T05:15:18.436Z,1006.78
2019-03-25T05:16:18.696Z,1006.76
2019-03-25T05:17:18.437Z,1006.84
2019-03-25T05:18:18.421Z,1006.74
2019-03-25T05:19:18.384Z,1006.80
2019-03-25T05:20:18.384Z,1006.72
2019-03-25T05:21:18.374Z,1006.70
2019-03-25T05:22:18.388Z,1006.67
2019-03-25T05:23:18.336Z,1006.65
2019-03-25T05:24:18.332Z,1006.61
2019-03-25T05:25:18.334Z,1006.68
2019-03-25T05:26:18.323Z,1006.60
2019-03-25T05:27:18.337Z,1006.67
2019-03-25T05:28:18.291Z,1006.65
2019-03-25T05:29:18.286Z,1006.66
2019-03-25T05:30:18.266Z,1006.64
2019-03-25T05:31:18.268Z,1006.65
2019-03-25T05:32:18.266Z,1006.60
2019-03-25T05:33:18.242Z,1006.60
2019-03-25T05:34:18.229Z,1006.66
2019-03-25T05:35:18.214Z,1006.69
2019-03-25T05:36:18.200Z,1006.69
2019-03-25T05:37:18.207Z,1006.60
2019-03-25T05:38:18.178Z,1006.67
2019-03-25T05:39:18.185Z,1006.50
2019-03-25T05:40:18.161Z,1006.60
2019-03-25T05:41:18.139Z,1006.66
2019-03-25T05:42:18.146Z,1006.54
2019-03-25T05:43:18.119Z,1006.38
2019-03-25T05:44:18.111Z,1006.46
2019-03-25T05:45:18.118Z,1006.47
2019-03-25T05:46:18.100Z,1006.49
2019-03-25T05:47:18.109Z,1006.56
2019-03-25T05:48:18.085Z,1006.50
2019-03-25T05:49:18.056Z,1006.56
2019-03-25T05:50:18.048Z,1006.56
2019-03-25T05:51:18.049Z,1006.56
2019-03-25T05:52:18.029Z,1006.56
2019-03-25T05:53:18.031Z,1006.63
2019-03-25T05:54:18.015Z,1006.66
2019-03-25T05:55:17.986Z,1006.80
2019-03-25T05:56:17.979Z,1006.71
2019-03-25T05:57:17.967Z,1006.63
2019-03-25T05:58:17.994Z,1006.76
2019-03-25T05:59:17.953Z,1006.80
2019-03-25T06:00:17.931Z,1006.78
2019-03-25T06:01:17.951Z,1006.75
2019-03-25T06:02:17.934Z,1006.79
2019-03-25T06:03:17.915Z,1006.63
2019-03-25T06:04:17.893Z,1006.62
2019-03-25T06:05:17.882Z,1006.61
2019-03-25T06:06:17.885Z,1006.65
2019-03-25T06:07:17.853Z,1006.57
2019-03-25T06:08:17.877Z,1006.56
2019-03-25T06:09:17.836Z,1006.53
2019-03-25T06:10:17.827Z,1006.61
2019-03-25T06:11:17.832Z,1006.70
2019-03-25T06:12:17.792Z,1006.56
2019-03-25T06:13:17.806Z,1006.50
2019-03-25T06:14:17.786Z,1006.47
2019-03-25T06:15:17.775Z,1006.52
2019-03-25T06:16:17.767Z,1006.59
2019-03-25T06:17:17.745Z,1006.55
2019-03-25T06:18:20.310Z,1006.44
2019-03-25T06:19:17.719Z,1006.46
2019-03-25T06:20:17.707Z,1006.41
2019-03-25T06:21:17.697Z,1006.40
2019-03-25T06:22:17.702Z,1006.46
2019-03-25T06:23:17.688Z,1006.39
2019-03-25T06:24:17.663Z,1006.50
2019-03-25T06:25:17.662Z,1006.61
2019-03-25T06:26:17.649Z,1006.41
2019-03-25T06:27:17.642Z,1006.51
2019-03-25T06:28:17.654Z,1006.38
2019-03-25T06:29:17.620Z,1006.45
2019-03-25T06:30:17.603Z,1006.45
2019-03-25T06:31:17.598Z,1006.40
2019-03-25T06:32:17.593Z,1006.63
2019-03-25T06:33:17.588Z,1006.39
2019-03-25T06:34:17.578Z,1006.47
2019-03-25T06:35:17.542Z,1006.46
2019-03-25T06:36:17.539Z,1006.56
2019-03-25T06:37:17.520Z,1006.51
2019-03-25T06:38:17.540Z,1006.42
2019-03-25T06:39:17.514Z,1006.51
2019-03-25T06:40:17.523Z,1006.58
2019-03-25T06:41:17.476Z,1006.54
2019-03-25T06:42:17.483Z,1006.68
2019-03-25T06:43:17.472Z,1006.69
2019-03-25T06:44:17.453Z,1006.59
2019-03-25T06:45:17.455Z,1006.67
2019-03-25T06:46:17.437Z,1006.66
2019-03-25T06:47:17.417Z,1006.63
2019-03-25T06:48:17.414Z,1006.65
2019-03-25T06:49:17.444Z,1006.75
2019-03-25T06:50:17.388Z,1006.67
2019-03-25T06:51:17.372Z,1006.72
2019-03-25T06:52:17.357Z,1006.72
2019-03-25T06:53:17.375Z,1006.63
2019-03-25T06:54:17.336Z,1006.61
2019-03-25T06:55:17.397Z,1006.69
2019-03-25T06:56:17.311Z,1006.60
2019-03-25T06:57:25.403Z,1006.69
2019-03-25T06:58:18.309Z,1006.63
2019-03-25T06:59:17.281Z,1006.60
2019-03-25T07:00:17.282Z,1006.61
2019-03-25T07:01:17.258Z,1006.57
2019-03-25T07:02:17.256Z,1006.62
2019-03-25T07:03:17.266Z,1006.75
2019-03-25T07:04:17.239Z,1006.71
2019-03-25T07:05:17.206Z,1006.64
2019-03-25T07:06:17.208Z,1006.60
2019-03-25T07:07:17.197Z,1006.65
2019-03-25T07:08:17.196Z,1006.67
2019-03-25T07:09:18.707Z,1006.66
2019-03-25T07:10:17.221Z,1006.69
2019-03-25T07:11:17.147Z,1006.75
2019-03-25T07:12:17.132Z,1006.79
2019-03-25T07:13:17.126Z,1006.69
2019-03-25T07:14:17.140Z,1006.78
2019-03-25T07:15:17.093Z,1006.75
2019-03-25T07:16:17.083Z,1006.76
2019-03-25T07:17:17.077Z,1006.67
2019-03-25T07:18:17.073Z,1006.73
2019-03-25T07:19:17.087Z,1006.87
2019-03-25T07:20:17.051Z,1006.85
2019-03-25T07:21:17.030Z,1006.75
2019-03-25T07:22:17.033Z,1006.82
2019-03-25T07:23:17.082Z,1006.78
2019-03-25T07:24:17.042Z,1006.91
2019-03-25T07:25:17.069Z,1006.72
2019-03-25T07:26:16.990Z,1006.88
2019-03-25T07:27:16.960Z,1006.85
2019-03-25T07:28:16.960Z,1006.78
2019-03-25T07:29:16.943Z,1006.89
2019-03-25T07:30:16.950Z,1006.87
2019-03-25T07:31:16.917Z,1006.75
2019-03-25T07:32:16.916Z,1006.77
2019-03-25T07:33:16.894Z,1006.73
2019-03-25T07:34:16.901Z,1006.74
2019-03-25T07:35:16.882Z,1006.73
2019-03-25T07:36:16.857Z,1006.73
2019-03-25T07:37:16.850Z,1006.81
2019-03-25T07:38:16.836Z,1006.69
2019-03-25T07:39:16.837Z,1006.72
2019-03-25T07:40:16.832Z,1006.73
2019-03-25T07:41:17.209Z,1006.75
2019-03-25T07:42:16.788Z,1006.71
2019-03-25T07:43:16.806Z,1006.81
2019-03-25T07:44:16.773Z,1006.83
2019-03-25T07:45:16.773Z,1006.92
2019-03-25T07:46:16.775Z,1006.88
2019-03-25T07:47:16.742Z,1006.82
2019-03-25T07:48:16.729Z,1006.78
2019-03-25T07:49:16.735Z,1006.73
2019-03-25T07:50:16.783Z,1006.75
2019-03-25T07:51:16.685Z,1006.97
2019-03-25T07:52:16.685Z,1006.74
2019-03-25T07:53:16.695Z,1006.77
2019-03-25T07:54:16.666Z,1006.77
2019-03-25T07:55:16.674Z,1006.68
2019-03-25T07:56:16.643Z,1006.72
2019-03-25T07:57:16.642Z,1006.83
2019-03-25T07:58:16.716Z,1006.78
2019-03-25T07:59:17.547Z,1006.81
2019-03-25T08:00:16.642Z,1006.83
2019-03-25T08:01:16.578Z,1006.86
2019-03-25T08:02:16.594Z,1006.91
2019-03-25T08:03:16.576Z,1006.98
2019-03-25T08:04:16.573Z,1006.88
2019-03-25T08:05:16.559Z,1006.87
2019-03-25T08:06:16.528Z,1006.86
2019-03-25T08:07:16.533Z,1006.88
2019-03-25T08:08:16.500Z,1006.90
2019-03-25T08:09:16.495Z,1006.84
2019-03-25T08:10:16.481Z,1006.95
2019-03-25T08:11:16.506Z,1006.84
2019-03-25T08:12:16.498Z,1006.91
2019-03-25T08:13:16.532Z,1007.01
2019-03-25T08:14:16.439Z,1007.03
2019-03-25T08:15:16.434Z,1007.00
2019-03-25T08:16:16.448Z,1006.99
2019-03-25T08:17:16.435Z,1006.96
2019-03-25T08:18:16.402Z,1006.98
2019-03-25T08:19:16.375Z,1006.94
2019-03-25T08:20:16.377Z,1006.96
2019-03-25T08:21:16.374Z,1007.01
2019-03-25T08:22:16.366Z,1006.98
2019-03-25T08:23:16.383Z,1007.05
2019-03-25T08:24:16.334Z,1007.05
2019-03-25T08:25:16.314Z,1007.07
2019-03-25T08:26:16.315Z,1006.97
2019-03-25T08:27:16.296Z,1006.85
2019-03-25T08:28:16.287Z,1006.87
2019-03-25T08:29:16.278Z,1006.78
2019-03-25T08:30:16.277Z,1006.83
2019-03-25T08:31:16.275Z,1006.82
2019-03-25T08:32:16.240Z,1006.82
2019-03-25T08:33:16.226Z,1006.75
2019-03-25T08:34:16.223Z,1006.75
2019-03-25T08:35:16.216Z,1006.71
2019-03-25T08:36:16.250Z,1006.93
2019-03-25T08:37:16.210Z,1006.92
2019-03-25T08:38:16.198Z,1006.95
2019-03-25T08:39:16.168Z,1006.78
2019-03-25T08:40:16.162Z,1006.92
2019-03-25T08:41:16.163Z,1007.07
2019-03-25T08:42:16.127Z,1006.98
2019-03-25T08:43:16.135Z,1007.02
2019-03-25T08:44:16.139Z,1007.08
2019-03-25T08:45:16.106Z,1007.09
2019-03-25T08:46:16.124Z,1007.08
2019-03-25T08:47:16.079Z,1007.04
2019-03-25T08:48:16.070Z,1007.22
2019-03-25T08:49:16.050Z,1007.07
2019-03-25T08:50:16.052Z,1007.10
2019-03-25T08:51:16.046Z,1007.11
2019-03-25T08:52:16.013Z,1007.06
2019-03-25T08:53:16.013Z,1007.08
2019-03-25T08:54:16.027Z,1007.12
2019-03-25T08:55:15.997Z,1007.05
2019-03-25T08:56:15.995Z,1007.09
2019-03-25T08:57:15.971Z,1007.13
2019-03-25T08:58:15.944Z,1007.09
2019-03-25T08:59:15.955Z,1007.38
2019-03-25T09:00:15.925Z,1007.27
2019-03-25T09:01:15.931Z,1007.38
2019-03-25T09:02:15.937Z,1007.18
2019-03-25T09:03:15.922Z,1007.27
2019-03-25T09:04:15.901Z,1007.31
2019-03-25T09:05:15.881Z,1007.43
2019-03-25T09:06:15.875Z,1007.42
2019-03-25T09:07:15.844Z,1007.43
2019-03-25T09:08:15.841Z,1007.43
2019-03-25T09:09:15.845Z,1007.45
2019-03-25T09:10:15.830Z,1007.46
2019-03-25T09:11:15.839Z,1007.49
2019-03-25T09:12:15.802Z,1007.47
2019-03-25T09:13:15.783Z,1007.37
2019-03-25T09:14:15.780Z,1007.34
2019-03-25T09:15:15.786Z,1007.39
2019-03-25T09:16:15.778Z,1007.50
2019-03-25T09:17:15.738Z,1007.50
2019-03-25T09:18:15.734Z,1007.50
2019-03-25T09:19:15.725Z,1007.53
2019-03-25T09:20:15.723Z,1007.37
2019-03-25T09:21:15.712Z,1007.36
2019-03-25T09:22:15.704Z,1007.44
2019-03-25T09:23:15.676Z,1007.41
2019-03-25T09:24:15.656Z,1007.50
2019-03-25T09:25:15.652Z,1007.73
2019-03-25T09:26:15.660Z,1007.56
2019-03-25T09:27:15.625Z,1007.64
2019-03-25T09:28:24.182Z,1007.50
2019-03-25T09:29:16.604Z,1007.55
2019-03-25T09:30:15.586Z,1007.44
2019-03-25T09:31:15.615Z,1007.61
2019-03-25T09:32:15.581Z,1007.47
2019-03-25T09:33:15.570Z,1007.47
2019-03-25T09:34:15.557Z,1007.50
2019-03-25T09:35:15.537Z,1007.48
2019-03-25T09:36:15.542Z,1007.52
2019-03-25T09:37:15.572Z,1007.57
2019-03-25T09:38:15.523Z,1007.67
2019-03-25T09:39:15.501Z,1007.68
2019-03-25T09:40:15.477Z,1007.70
2019-03-25T09:41:15.505Z,1007.76
2019-03-25T09:42:15.467Z,1007.67
2019-03-25T09:43:15.450Z,1007.79
2019-03-25T09:44:15.460Z,1007.62
2019-03-25T09:45:15.437Z,1007.68
2019-03-25T09:46:15.434Z,1007.62
2019-03-25T09:47:15.410Z,1007.67
2019-03-25T09:48:15.407Z,1007.78
2019-03-25T09:49:15.383Z,1007.83
2019-03-25T09:50:15.374Z,1007.68
2019-03-25T09:51:15.369Z,1007.65
2019-03-25T09:52:15.370Z,1007.64
2019-03-25T09:53:15.351Z,1007.56
2019-03-25T09:54:15.329Z,1007.61
2019-03-25T09:55:16.587Z,1007.66
2019-03-25T09:56:15.349Z,1007.80
2019-03-25T09:57:15.306Z,1007.58
2019-03-25T09:58:15.283Z,1007.62
2019-03-25T09:59:15.283Z,1007.67
2019-03-25T10:00:15.261Z,1007.75
2019-03-25T10:01:15.257Z,1007.77
2019-03-25T10:02:15.251Z,1007.82
2019-03-25T10:03:15.233Z,1007.69
2019-03-25T10:04:15.294Z,1007.77
2019-03-25T10:05:15.204Z,1007.78
2019-03-25T10:06:15.200Z,1007.69
2019-03-25T10:07:15.210Z,1007.71
2019-03-25T10:08:15.191Z,1007.84
2019-03-25T10:09:15.171Z,1007.77
2019-03-25T10:10:15.171Z,1007.74
2019-03-25T10:11:15.135Z,1007.72
2019-03-25T10:12:15.165Z,1007.71
2019-03-25T10:13:15.129Z,1007.72
2019-03-25T10:14:15.111Z,1007.73
2019-03-25T10:15:15.110Z,1007.79
2019-03-25T10:16:15.089Z,1007.73
2019-03-25T10:17:15.085Z,1007.78
2019-03-25T10:18:15.060Z,1007.81
2019-03-25T10:19:15.050Z,1007.88
2019-03-25T10:20:15.050Z,1007.95
2019-03-25T10:21:15.033Z,1008.00
2019-03-25T10:22:15.039Z,1008.01
2019-03-25T10:23:15.018Z,1007.90
2019-03-25T10:24:15.173Z,1007.92
2019-03-25T10:25:14.988Z,1008.01
2019-03-25T10:26:14.968Z,1007.93
2019-03-25T10:27:14.994Z,1007.82
2019-03-25T10:28:14.944Z,1007.92
2019-03-25T10:29:14.946Z,1008.02
2019-03-25T10:30:14.925Z,1008.00
2019-03-25T10:31:17.205Z,1008.06
2019-03-25T10:32:14.935Z,1008.17
2019-03-25T10:33:14.886Z,1008.17
2019-03-25T10:34:14.878Z,1008.08
2019-03-25T10:35:14.877Z,1007.97
2019-03-25T10:36:14.854Z,1007.97
2019-03-25T10:37:14.874Z,1008.10
2019-03-25T10:38:19.398Z,1008.12
2019-03-25T10:39:15.842Z,1008.16
2019-03-25T10:40:14.828Z,1008.15
2019-03-25T10:41:14.812Z,1008.28
2019-03-25T10:42:14.815Z,1008.17
2019-03-25T10:43:14.808Z,1008.16
2019-03-25T10:44:14.784Z,1008.03
2019-03-25T10:45:14.770Z,1008.16
2019-03-25T10:46:14.768Z,1008.05
2019-03-25T10:47:14.768Z,1008.03
2019-03-25T10:48:14.733Z,1008.16
2019-03-25T10:49:16.200Z,1008.25
2019-03-25T10:50:14.707Z,1008.16
2019-03-25T10:51:14.706Z,1007.99
2019-03-25T10:52:14.707Z,1008.06
2019-03-25T10:53:14.675Z,1007.99
2019-03-25T10:54:14.665Z,1008.17
2019-03-25T10:55:14.646Z,1008.04
2019-03-25T10:56:14.644Z,1008.05
2019-03-25T10:57:14.663Z,1007.95
2019-03-25T10:58:14.619Z,1007.99
2019-03-25T10:59:14.611Z,1008.07
2019-03-25T11:00:14.601Z,1007.90
2019-03-25T11:01:14.588Z,1007.97
2019-03-25T11:02:14.630Z,1007.92
2019-03-25T11:03:14.566Z,1007.91
2019-03-25T11:04:14.555Z,1008.06
2019-03-25T11:05:14.543Z,1007.86
2019-03-25T11:06:14.529Z,1007.90
2019-03-25T11:07:14.557Z,1007.91
2019-03-25T11:08:14.520Z,1007.99
2019-03-25T11:09:14.513Z,1008.10
2019-03-25T11:10:14.497Z,1007.99
2019-03-25T11:11:14.479Z,1007.97
2019-03-25T11:12:14.490Z,1007.92
2019-03-25T11:13:14.448Z,1007.88
2019-03-25T11:14:14.439Z,1007.90
2019-03-25T11:15:14.440Z,1008.02
2019-03-25T11:16:14.421Z,1007.98
2019-03-25T11:17:14.445Z,1007.96
2019-03-25T11:18:14.388Z,1007.86
2019-03-25T11:19:14.401Z,1007.97
2019-03-25T11:20:14.406Z,1007.92
2019-03-25T11:21:14.364Z,1007.86
2019-03-25T11:22:14.378Z,1008.03
2019-03-25T11:23:14.342Z,1007.91
2019-03-25T11:24:15.245Z,1007.82
2019-03-25T11:25:14.311Z,1007.97
2019-03-25T11:26:14.307Z,1007.95
2019-03-25T11:27:14.323Z,1007.84
2019-03-25T11:28:14.295Z,1007.93
2019-03-25T11:29:14.282Z,1007.84
2019-03-25T11:30:14.269Z,1007.86
2019-03-25T11:31:14.262Z,1007.85
2019-03-25T11:32:14.269Z,1007.91
2019-03-25T11:33:14.242Z,1007.89
2019-03-25T11:34:14.232Z,1008.00
2019-03-25T11:35:14.215Z,1008.06
2019-03-25T11:36:14.194Z,1008.21
2019-03-25T11:37:14.210Z,1007.96
2019-03-25T11:38:14.181Z,1008.10
2019-03-25T11:39:14.162Z,1008.07
2019-03-25T11:40:14.162Z,1007.97
2019-03-25T11:41:14.143Z,1008.05
2019-03-25T11:42:14.156Z,1008.20
2019-03-25T11:43:14.120Z,1008.03
2019-03-25T11:44:14.106Z,1008.07
2019-03-25T11:45:14.122Z,1008.15
2019-03-25T11:46:14.087Z,1008.10
2019-03-25T11:47:14.108Z,1008.01
2019-03-25T11:48:14.072Z,1007.97
2019-03-25T11:49:14.046Z,1008.03
2019-03-25T11:50:14.043Z,1008.07
2019-03-25T11:51:14.025Z,1007.93
2019-03-25T11:52:14.049Z,1008.00
2019-03-25T11:53:14.008Z,1008.09
2019-03-25T11:54:13.988Z,1008.09
2019-03-25T11:55:13.980Z,1007.89
2019-03-25T11:56:13.978Z,1007.96
2019-03-25T11:57:13.969Z,1008.06
2019-03-25T11:58:13.950Z,1008.02
2019-03-25T11:59:18.677Z,1007.90
2019-03-25T12:00:14.937Z,1007.90
2019-03-25T12:01:13.919Z,1007.95
2019-03-25T12:02:17.681Z,1007.88
2019-03-25T12:03:13.892Z,1007.85
2019-03-25T12:04:13.880Z,1007.86
2019-03-25T12:05:13.878Z,1007.91